sensor_id;sensor_type;location;lat;lon;timestamp;pressure;altitude;pressure_sealevel;temperature;humidity
21760;BME280;11041;50.854;20.580;2022-11-20T00:01:23;98529.63;;;-6.80;80.94
21760;BME280;11041;50.854;20.580;2022-11-20T00:03:53;98518.94;;;-6.80;80.95
21760;BME280;11041;50.854;20.580;2022-11-20T00:06:21;98532.91;;;-6.78;80.58
21760;BME280;11041;50.854;20.580;2022-11-20T00:08:49;98532.50;;;-6.75;80.82
21760;BME280;11041;50.854;20.580;2022-11-20T00:11:22;98515.22;;;-6.72;80.63
21760;BME280;11041;50.854;20.580;2022-11-20T00:13:53;98523.03;;;-6.71;80.45
21760;BME280;11041;50.854;20.580;2022-11-20T00:16:24;98519.50;;;-6.71;80.15
21760;BME280;11041;50.854;20.580;2022-11-20T00:18:52;98520.56;;;-6.72;80.00
21760;BME280;11041;50.854;20.580;2022-11-20T00:21:22;98522.19;;;-6.71;79.91
21760;BME280;11041;50.854;20.580;2022-11-20T00:23:50;98532.50;;;-6.75;80.01
21760;BME280;11041;50.854;20.580;2022-11-20T00:26:19;98525.28;;;-6.81;80.09
21760;BME280;11041;50.854;20.580;2022-11-20T00:28:56;98525.09;;;-6.86;80.10
21760;BME280;11041;50.854;20.580;2022-11-20T00:31:24;98516.91;;;-6.91;79.77
21760;BME280;11041;50.854;20.580;2022-11-20T00:33:51;98521.44;;;-6.98;79.75
21760;BME280;11041;50.854;20.580;2022-11-20T00:36:22;98533.53;;;-6.96;80.22
21760;BME280;11041;50.854;20.580;2022-11-20T00:38:54;98528.44;;;-7.04;80.31
21760;BME280;11041;50.854;20.580;2022-11-20T00:41:21;98522.03;;;-7.03;80.32
21760;BME280;11041;50.854;20.580;2022-11-20T00:43:50;98533.78;;;-7.04;80.38
21760;BME280;11041;50.854;20.580;2022-11-20T00:46:20;98520.00;;;-7.08;80.51
21760;BME280;11041;50.854;20.580;2022-11-20T00:48:47;98526.97;;;-7.00;80.83
21760;BME280;11041;50.854;20.580;2022-11-20T00:51:18;98531.91;;;-6.90;80.64
21760;BME280;11041;50.854;20.580;2022-11-20T00:53:46;98534.59;;;-6.90;80.41
21760;BME280;11041;50.854;20.580;2022-11-20T00:56:17;98541.13;;;-6.86;80.46
21760;BME280;11041;50.854;20.580;2022-11-20T00:58:47;98541.13;;;-6.86;80.29
21760;BME280;11041;50.854;20.580;2022-11-20T01:01:18;98535.78;;;-6.86;80.51
21760;BME280;11041;50.854;20.580;2022-11-20T01:03:48;98529.22;;;-6.83;80.07
21760;BME280;11041;50.854;20.580;2022-11-20T01:06:22;98528.41;;;-6.91;79.93
21760;BME280;11041;50.854;20.580;2022-11-20T01:08:51;98533.53;;;-6.89;80.00
21760;BME280;11041;50.854;20.580;2022-11-20T01:11:25;98528.63;;;-6.92;80.22
21760;BME280;11041;50.854;20.580;2022-11-20T01:13:54;98516.72;;;-6.96;80.13
21760;BME280;11041;50.854;20.580;2022-11-20T01:16:34;98523.47;;;-6.94;80.22
21760;BME280;11041;50.854;20.580;2022-11-20T01:19:04;98523.91;;;-6.97;80.06
21760;BME280;11041;50.854;20.580;2022-11-20T01:21:37;98516.28;;;-7.00;79.95
21760;BME280;11041;50.854;20.580;2022-11-20T01:24:07;98526.16;;;-7.00;79.95
21760;BME280;11041;50.854;20.580;2022-11-20T01:26:38;98514.84;;;-7.02;79.63
21760;BME280;11041;50.854;20.580;2022-11-20T01:29:08;98510.34;;;-7.09;79.76
21760;BME280;11041;50.854;20.580;2022-11-20T01:31:37;98496.38;;;-7.11;79.40
21760;BME280;11041;50.854;20.580;2022-11-20T01:34:13;98510.56;;;-7.10;79.92
21760;BME280;11041;50.854;20.580;2022-11-20T01:36:41;98503.97;;;-7.08;79.55
21760;BME280;11041;50.854;20.580;2022-11-20T01:39:16;98493.09;;;-7.13;79.62
21760;BME280;11041;50.854;20.580;2022-11-20T01:41:45;98499.44;;;-7.07;79.34
21760;BME280;11041;50.854;20.580;2022-11-20T01:44:58;98481.81;;;-7.15;79.46
21760;BME280;11041;50.854;20.580;2022-11-20T01:47:39;98485.91;;;-7.12;79.22
21760;BME280;11041;50.854;20.580;2022-11-20T01:50:27;98485.72;;;-7.17;79.02
21760;BME280;11041;50.854;20.580;2022-11-20T01:53:05;98483.25;;;-7.25;79.00
21760;BME280;11041;50.854;20.580;2022-11-20T01:55:41;98486.56;;;-7.30;78.95
21760;BME280;11041;50.854;20.580;2022-11-20T01:58:09;98488.59;;;-7.32;79.33
21760;BME280;11041;50.854;20.580;2022-11-20T02:00:40;98495.56;;;-7.31;79.11
21760;BME280;11041;50.854;20.580;2022-11-20T02:03:15;98496.00;;;-7.34;79.13
21760;BME280;11041;50.854;20.580;2022-11-20T02:06:14;98489.84;;;-7.41;78.66
21760;BME280;11041;50.854;20.580;2022-11-20T02:08:43;98496.00;;;-7.47;78.68
21760;BME280;11041;50.854;20.580;2022-11-20T02:11:10;98493.97;;;-7.45;78.42
21760;BME280;11041;50.854;20.580;2022-11-20T02:13:38;98481.63;;;-7.53;79.00
21760;BME280;11041;50.854;20.580;2022-11-20T02:16:43;98495.16;;;-7.48;78.77
21760;BME280;11041;50.854;20.580;2022-11-20T02:19:31;98480.63;;;-7.52;79.11
21760;BME280;11041;50.854;20.580;2022-11-20T02:22:30;98507.91;;;-7.37;79.14
21760;BME280;11041;50.854;20.580;2022-11-20T02:25:02;98499.91;;;-7.37;78.99
21760;BME280;11041;50.854;20.580;2022-11-20T02:27:30;98501.56;;;-7.36;79.28
21760;BME280;11041;50.854;20.580;2022-11-20T02:30:07;98481.81;;;-7.41;79.14
21760;BME280;11041;50.854;20.580;2022-11-20T02:32:36;98481.63;;;-7.40;79.29
21760;BME280;11041;50.854;20.580;2022-11-20T02:37:53;98491.06;;;-7.31;79.43
21760;BME280;11041;50.854;20.580;2022-11-20T02:40:21;98498.47;;;-7.26;79.15
21760;BME280;11041;50.854;20.580;2022-11-20T02:42:52;98500.09;;;-7.25;79.30
21760;BME280;11041;50.854;20.580;2022-11-20T02:45:18;98496.63;;;-7.25;78.86
21760;BME280;11041;50.854;20.580;2022-11-20T02:47:45;98501.94;;;-7.25;79.10
21760;BME280;11041;50.854;20.580;2022-11-20T02:50:11;98499.91;;;-7.30;79.21
21760;BME280;11041;50.854;20.580;2022-11-20T02:52:38;98501.53;;;-7.29;79.22
21760;BME280;11041;50.854;20.580;2022-11-20T02:55:05;98515.69;;;-7.22;79.06
21760;BME280;11041;50.854;20.580;2022-11-20T02:57:32;98511.41;;;-7.23;78.81
21760;BME280;11041;50.854;20.580;2022-11-20T02:59:58;98506.47;;;-7.26;79.10
21760;BME280;11041;50.854;20.580;2022-11-20T03:02:25;98500.72;;;-7.30;78.69
21760;BME280;11041;50.854;20.580;2022-11-20T03:04:51;98501.94;;;-7.39;78.45
21760;BME280;11041;50.854;20.580;2022-11-20T03:07:18;98512.41;;;-7.24;78.65
21760;BME280;11041;50.854;20.580;2022-11-20T03:09:45;98497.63;;;-7.26;79.06
21760;BME280;11041;50.854;20.580;2022-11-20T03:12:11;98506.25;;;-7.24;78.98
21760;BME280;11041;50.854;20.580;2022-11-20T03:14:37;98513.66;;;-7.20;78.66
21760;BME280;11041;50.854;20.580;2022-11-20T03:17:04;98510.78;;;-7.18;78.99
21760;BME280;11041;50.854;20.580;2022-11-20T03:19:31;98506.25;;;-7.24;78.81
21760;BME280;11041;50.854;20.580;2022-11-20T03:21:58;98505.44;;;-7.25;78.93
21760;BME280;11041;50.854;20.580;2022-11-20T03:24:26;98503.38;;;-7.30;78.92
21760;BME280;11041;50.854;20.580;2022-11-20T03:26:56;98513.25;;;-7.30;79.01
21760;BME280;11041;50.854;20.580;2022-11-20T03:29:23;98492.13;;;-7.38;79.13
21760;BME280;11041;50.854;20.580;2022-11-20T03:31:50;98495.56;;;-7.31;79.34
21760;BME280;11041;50.854;20.580;2022-11-20T03:34:16;98503.81;;;-7.26;79.05
21760;BME280;11041;50.854;20.580;2022-11-20T03:36:42;98487.97;;;-7.28;79.35
21760;BME280;11041;50.854;20.580;2022-11-20T03:39:09;98478.31;;;-7.22;79.45
21760;BME280;11041;50.854;20.580;2022-11-20T03:41:41;98495.16;;;-7.15;79.49
21760;BME280;11041;50.854;20.580;2022-11-20T03:44:11;98482.41;;;-7.13;79.69
21760;BME280;11041;50.854;20.580;2022-11-20T03:46:38;98486.31;;;-7.09;79.78
21760;BME280;11041;50.854;20.580;2022-11-20T03:49:04;98486.94;;;-7.07;79.58
21760;BME280;11041;50.854;20.580;2022-11-20T03:51:35;98473.78;;;-7.08;79.90
21760;BME280;11041;50.854;20.580;2022-11-20T03:54:08;98475.84;;;-7.03;79.70
21760;BME280;11041;50.854;20.580;2022-11-20T03:56:37;98475.63;;;-7.02;79.24
21760;BME280;11041;50.854;20.580;2022-11-20T03:59:05;98498.41;;;-6.93;79.34
21760;BME280;11041;50.854;20.580;2022-11-20T04:01:35;98496.75;;;-6.87;79.43
21760;BME280;11041;50.854;20.580;2022-11-20T04:04:02;98473.72;;;-6.88;79.68
21760;BME280;11041;50.854;20.580;2022-11-20T04:06:37;98479.25;;;-6.76;80.12
21760;BME280;11041;50.854;20.580;2022-11-20T04:09:05;98477.00;;;-6.73;80.32
21760;BME280;11041;50.854;20.580;2022-11-20T04:11:37;98488.06;;;-6.62;79.99
21760;BME280;11041;50.854;20.580;2022-11-20T04:14:12;98484.56;;;-6.56;79.90
21760;BME280;11041;50.854;20.580;2022-11-20T04:16:39;98475.09;;;-6.59;79.99
21760;BME280;11041;50.854;20.580;2022-11-20T04:19:15;98475.09;;;-6.59;79.77
21760;BME280;11041;50.854;20.580;2022-11-20T04:21:43;98474.66;;;-6.56;79.57
21760;BME280;11041;50.854;20.580;2022-11-20T04:24:11;98471.56;;;-6.53;80.06
21760;BME280;11041;50.854;20.580;2022-11-20T04:26:38;98477.91;;;-6.47;80.07
21760;BME280;11041;50.854;20.580;2022-11-20T04:29:05;98460.84;;;-6.46;80.20
21760;BME280;11041;50.854;20.580;2022-11-20T04:31:34;98455.69;;;-6.41;80.19
21760;BME280;11041;50.854;20.580;2022-11-20T04:34:06;98461.19;;;-6.29;80.46
21760;BME280;11041;50.854;20.580;2022-11-20T04:36:34;98465.25;;;-6.20;80.36
21760;BME280;11041;50.854;20.580;2022-11-20T04:39:06;98459.84;;;-6.13;80.27
21760;BME280;11041;50.854;20.580;2022-11-20T04:41:36;98453.03;;;-6.09;80.40
21760;BME280;11041;50.854;20.580;2022-11-20T04:44:05;98453.38;;;-5.99;81.37
21760;BME280;11041;50.854;20.580;2022-11-20T04:46:39;98454.97;;;-5.91;81.19
21760;BME280;11041;50.854;20.580;2022-11-20T04:49:07;98446.88;;;-5.85;81.20
21760;BME280;11041;50.854;20.580;2022-11-20T04:51:35;98446.47;;;-5.82;81.53
21760;BME280;11041;50.854;20.580;2022-11-20T04:54:01;98445.53;;;-5.69;81.12
21760;BME280;11041;50.854;20.580;2022-11-20T04:56:28;98442.88;;;-5.69;81.86
21760;BME280;11041;50.854;20.580;2022-11-20T04:58:54;98456.16;;;-5.55;81.66
21760;BME280;11041;50.854;20.580;2022-11-20T05:01:24;98440.66;;;-5.53;82.32
21760;BME280;11041;50.854;20.580;2022-11-20T05:03:51;98444.50;;;-5.43;82.76
21760;BME280;11041;50.854;20.580;2022-11-20T05:06:24;98444.16;;;-5.28;83.12
21760;BME280;11041;50.854;20.580;2022-11-20T05:08:51;98437.53;;;-5.25;83.36
21760;BME280;11041;50.854;20.580;2022-11-20T05:11:20;98439.91;;;-5.17;83.28
21760;BME280;11041;50.854;20.580;2022-11-20T05:13:48;98437.19;;;-5.10;83.44
21760;BME280;11041;50.854;20.580;2022-11-20T05:16:22;98430.34;;;-5.06;83.24
21760;BME280;11041;50.854;20.580;2022-11-20T05:18:51;98421.03;;;-5.04;83.46
21760;BME280;11041;50.854;20.580;2022-11-20T05:21:19;98430.03;;;-4.98;83.38
21760;BME280;11041;50.854;20.580;2022-11-20T05:23:46;98429.38;;;-4.94;82.71
21760;BME280;11041;50.854;20.580;2022-11-20T05:26:20;98416.78;;;-4.93;83.08
21760;BME280;11041;50.854;20.580;2022-11-20T05:28:49;98430.13;;;-4.86;82.74
21760;BME280;11041;50.854;20.580;2022-11-20T05:31:22;98422.69;;;-4.84;82.82
21760;BME280;11041;50.854;20.580;2022-11-20T05:33:49;98426.41;;;-4.85;83.12
21760;BME280;11041;50.854;20.580;2022-11-20T05:36:17;98425.38;;;-4.84;83.61
21760;BME280;11041;50.854;20.580;2022-11-20T05:38:44;98433.78;;;-4.81;83.40
21760;BME280;11041;50.854;20.580;2022-11-20T05:41:14;98434.97;;;-4.77;83.85
21760;BME280;11041;50.854;20.580;2022-11-20T05:43:44;98424.78;;;-4.86;83.75
21760;BME280;11041;50.854;20.580;2022-11-20T05:46:15;98433.56;;;-4.79;83.97
21760;BME280;11041;50.854;20.580;2022-11-20T05:48:43;98418.28;;;-4.79;84.03
21760;BME280;11041;50.854;20.580;2022-11-20T05:51:15;98417.03;;;-4.76;83.86
21760;BME280;11041;50.854;20.580;2022-11-20T05:53:42;98425.22;;;-4.71;83.87
21760;BME280;11041;50.854;20.580;2022-11-20T05:56:16;98418.88;;;-4.77;83.75
21760;BME280;11041;50.854;20.580;2022-11-20T05:58:45;98425.66;;;-4.74;83.75
21760;BME280;11041;50.854;20.580;2022-11-20T06:01:21;98413.63;;;-4.83;83.88
21760;BME280;11041;50.854;20.580;2022-11-20T06:03:49;98418.13;;;-4.84;83.62
21760;BME280;11041;50.854;20.580;2022-11-20T06:06:18;98418.38;;;-4.85;83.83
21760;BME280;11041;50.854;20.580;2022-11-20T06:08:45;98421.66;;;-4.83;84.06
21760;BME280;11041;50.854;20.580;2022-11-20T06:11:14;98412.88;;;-4.90;84.15
21760;BME280;11041;50.854;20.580;2022-11-20T06:13:41;98416.44;;;-4.97;84.45
21760;BME280;11041;50.854;20.580;2022-11-20T06:16:09;98416.34;;;-5.08;84.25
21760;BME280;11041;50.854;20.580;2022-11-20T06:18:37;98425.34;;;-5.21;85.33
21760;BME280;11041;50.854;20.580;2022-11-20T06:21:08;98428.00;;;-5.40;85.44
21760;BME280;11041;50.854;20.580;2022-11-20T06:23:36;98426.63;;;-5.49;86.49
21760;BME280;11041;50.854;20.580;2022-11-20T06:26:13;98403.84;;;-5.58;86.58
21760;BME280;11041;50.854;20.580;2022-11-20T06:28:40;98413.69;;;-5.52;87.19
21760;BME280;11041;50.854;20.580;2022-11-20T06:31:09;98424.56;;;-5.47;87.15
21760;BME280;11041;50.854;20.580;2022-11-20T06:33:36;98438.09;;;-5.42;87.31
21760;BME280;11041;50.854;20.580;2022-11-20T06:36:04;98431.47;;;-5.39;86.87
21760;BME280;11041;50.854;20.580;2022-11-20T06:38:31;98431.06;;;-5.36;87.12
21760;BME280;11041;50.854;20.580;2022-11-20T06:40:58;98433.66;;;-5.29;86.94
21760;BME280;11041;50.854;20.580;2022-11-20T06:43:26;98428.69;;;-5.26;86.53
21760;BME280;11041;50.854;20.580;2022-11-20T06:45:56;98412.69;;;-5.32;86.36
21760;BME280;11041;50.854;20.580;2022-11-20T06:48:26;98418.50;;;-5.36;86.24
21760;BME280;11041;50.854;20.580;2022-11-20T06:50:53;98414.06;;;-5.48;86.09
21760;BME280;11041;50.854;20.580;2022-11-20T06:53:21;98422.94;;;-5.48;86.27
21760;BME280;11041;50.854;20.580;2022-11-20T06:55:48;98411.22;;;-5.53;86.63
21760;BME280;11041;50.854;20.580;2022-11-20T06:58:16;98418.28;;;-5.59;86.61
21760;BME280;11041;50.854;20.580;2022-11-20T07:00:43;98407.84;;;-5.67;87.06
21760;BME280;11041;50.854;20.580;2022-11-20T07:03:12;98413.88;;;-5.72;87.14
21760;BME280;11041;50.854;20.580;2022-11-20T07:05:39;98415.94;;;-5.74;87.46
21760;BME280;11041;50.854;20.580;2022-11-20T07:08:07;98414.50;;;-5.76;87.73
21760;BME280;11041;50.854;20.580;2022-11-20T07:10:34;98425.22;;;-5.76;87.80
21760;BME280;11041;50.854;20.580;2022-11-20T07:13:01;98423.00;;;-5.80;87.73
21760;BME280;11041;50.854;20.580;2022-11-20T07:15:29;98414.34;;;-5.82;87.85
21760;BME280;11041;50.854;20.580;2022-11-20T07:17:59;98409.50;;;-5.91;87.72
21760;BME280;11041;50.854;20.580;2022-11-20T07:20:26;98417.06;;;-5.88;87.64
21760;BME280;11041;50.854;20.580;2022-11-20T07:22:56;98405.75;;;-5.90;87.80
21760;BME280;11041;50.854;20.580;2022-11-20T07:25:27;98400.94;;;-6.00;87.72
21760;BME280;11041;50.854;20.580;2022-11-20T07:27:58;98409.13;;;-5.95;88.09
21760;BME280;11041;50.854;20.580;2022-11-20T07:30:27;98416.53;;;-5.97;87.67
21760;BME280;11041;50.854;20.580;2022-11-20T07:32:56;98402.19;;;-6.03;87.74
21760;BME280;11041;50.854;20.580;2022-11-20T07:35:25;98404.47;;;-6.06;87.61
21760;BME280;11041;50.854;20.580;2022-11-20T07:37:52;98413.66;;;-5.95;88.05
21760;BME280;11041;50.854;20.580;2022-11-20T07:40:19;98403.16;;;-5.97;87.96
21760;BME280;11041;50.854;20.580;2022-11-20T07:42:54;98412.75;;;-5.89;87.61
21760;BME280;11041;50.854;20.580;2022-11-20T07:45:23;98409.25;;;-5.90;87.40
21760;BME280;11041;50.854;20.580;2022-11-20T07:47:50;98397.81;;;-5.97;87.07
21760;BME280;11041;50.854;20.580;2022-11-20T07:50:18;98388.59;;;-6.01;87.02
21760;BME280;11041;50.854;20.580;2022-11-20T07:52:45;98396.69;;;-5.89;86.78
21760;BME280;11041;50.854;20.580;2022-11-20T07:55:12;98405.56;;;-5.89;86.60
21760;BME280;11041;50.854;20.580;2022-11-20T07:57:39;98398.94;;;-5.86;86.64
21760;BME280;11041;50.854;20.580;2022-11-20T08:00:09;98404.66;;;-5.83;86.48
21760;BME280;11041;50.854;20.580;2022-11-20T08:02:40;98411.44;;;-5.80;86.25
21760;BME280;11041;50.854;20.580;2022-11-20T08:05:09;98415.13;;;-5.74;86.44
21760;BME280;11041;50.854;20.580;2022-11-20T08:07:41;98406.19;;;-5.68;86.27
21760;BME280;11041;50.854;20.580;2022-11-20T08:10:13;98409.66;;;-5.61;86.51
21760;BME280;11041;50.854;20.580;2022-11-20T08:12:51;98415.72;;;-5.47;85.99
21760;BME280;11041;50.854;20.580;2022-11-20T08:15:39;98401.22;;;-5.40;86.55
21760;BME280;11041;50.854;20.580;2022-11-20T08:18:12;98400.72;;;-5.30;85.84
21760;BME280;11041;50.854;20.580;2022-11-20T08:20:38;98411.06;;;-5.15;86.13
21760;BME280;11041;50.854;20.580;2022-11-20T08:23:07;98406.25;;;-5.06;85.74
21760;BME280;11041;50.854;20.580;2022-11-20T08:25:36;98398.34;;;-5.01;85.88
21760;BME280;11041;50.854;20.580;2022-11-20T08:28:07;98397.81;;;-4.92;85.32
21760;BME280;11041;50.854;20.580;2022-11-20T08:30:35;98397.38;;;-4.88;84.74
21760;BME280;11041;50.854;20.580;2022-11-20T08:33:06;98400.97;;;-4.76;85.01
21760;BME280;11041;50.854;20.580;2022-11-20T08:35:36;98411.59;;;-4.69;84.24
21760;BME280;11041;50.854;20.580;2022-11-20T08:38:05;98407.88;;;-4.68;84.68
21760;BME280;11041;50.854;20.580;2022-11-20T08:40:33;98406.88;;;-4.56;84.69
21760;BME280;11041;50.854;20.580;2022-11-20T08:42:59;98415.19;;;-4.45;84.94
21760;BME280;11041;50.854;20.580;2022-11-20T08:45:27;98408.13;;;-4.40;84.32
21760;BME280;11041;50.854;20.580;2022-11-20T08:47:59;98410.13;;;-4.35;83.76
21760;BME280;11041;50.854;20.580;2022-11-20T08:50:27;98405.78;;;-4.36;83.78
21760;BME280;11041;50.854;20.580;2022-11-20T08:52:53;98402.44;;;-4.32;84.11
21760;BME280;11041;50.854;20.580;2022-11-20T08:55:20;98400.34;;;-4.30;84.65
21760;BME280;11041;50.854;20.580;2022-11-20T08:57:46;98402.25;;;-4.18;84.70
21760;BME280;11041;50.854;20.580;2022-11-20T09:00:14;98396.78;;;-4.12;85.05
21760;BME280;11041;50.854;20.580;2022-11-20T09:02:40;98397.06;;;-4.01;84.58
21760;BME280;11041;50.854;20.580;2022-11-20T09:05:07;98408.53;;;-3.94;83.94
21760;BME280;11041;50.854;20.580;2022-11-20T09:07:34;98392.84;;;-3.97;83.49
21760;BME280;11041;50.854;20.580;2022-11-20T09:10:00;98405.13;;;-3.90;83.69
21760;BME280;11041;50.854;20.580;2022-11-20T09:12:27;98404.69;;;-3.87;83.85
21760;BME280;11041;50.854;20.580;2022-11-20T09:14:53;98400.25;;;-3.81;84.26
21760;BME280;11041;50.854;20.580;2022-11-20T09:17:20;98395.25;;;-3.77;83.84
21760;BME280;11041;50.854;20.580;2022-11-20T09:19:46;98379.47;;;-3.74;84.37
21760;BME280;11041;50.854;20.580;2022-11-20T09:22:13;98374.59;;;-3.65;84.62
21760;BME280;11041;50.854;20.580;2022-11-20T09:24:39;98389.19;;;-3.49;84.22
21760;BME280;11041;50.854;20.580;2022-11-20T09:27:06;98386.38;;;-3.54;83.67
21760;BME280;11041;50.854;20.580;2022-11-20T09:29:33;98369.22;;;-3.65;84.28
21760;BME280;11041;50.854;20.580;2022-11-20T09:31:59;98374.72;;;-3.60;84.80
21760;BME280;11041;50.854;20.580;2022-11-20T09:34:25;98358.69;;;-3.67;84.72
21760;BME280;11041;50.854;20.580;2022-11-20T09:36:52;98357.53;;;-3.71;85.46
21760;BME280;11041;50.854;20.580;2022-11-20T09:39:19;98361.16;;;-3.77;85.45
21760;BME280;11041;50.854;20.580;2022-11-20T09:53:33;98366.78;;;-3.31;85.57
21760;BME280;11041;50.854;20.580;2022-11-20T09:56:03;98362.09;;;-3.24;85.45
21760;BME280;11041;50.854;20.580;2022-11-20T09:58:42;98345.38;;;-3.26;84.64
21760;BME280;11041;50.854;20.580;2022-11-20T10:01:32;98358.34;;;-3.23;84.36
21760;BME280;11041;50.854;20.580;2022-11-20T10:04:15;98356.25;;;-3.21;85.06
21760;BME280;11041;50.854;20.580;2022-11-20T10:07:17;98346.88;;;-3.18;84.76
21760;BME280;11041;50.854;20.580;2022-11-20T10:09:53;98355.16;;;-3.08;85.19
21760;BME280;11041;50.854;20.580;2022-11-20T10:20:42;98345.06;;;-2.89;83.68
21760;BME280;11041;50.854;20.580;2022-11-20T10:23:24;98340.38;;;-2.82;83.79
21760;BME280;11041;50.854;20.580;2022-11-20T10:29:15;98327.50;;;-2.80;82.17
21760;BME280;11041;50.854;20.580;2022-11-20T10:32:09;98333.56;;;-2.73;82.69
21760;BME280;11041;50.854;20.580;2022-11-20T10:34:51;98333.75;;;-2.63;80.69
21760;BME280;11041;50.854;20.580;2022-11-20T10:37:26;98339.22;;;-2.58;80.43
21760;BME280;11041;50.854;20.580;2022-11-20T10:43:33;98336.31;;;-2.56;81.88
21760;BME280;11041;50.854;20.580;2022-11-20T10:46:15;98324.97;;;-2.58;82.01
21760;BME280;11041;50.854;20.580;2022-11-20T10:48:44;98321.19;;;-2.45;81.43
21760;BME280;11041;50.854;20.580;2022-11-20T11:00:05;98333.94;;;-2.24;81.33
21760;BME280;11041;50.854;20.580;2022-11-20T11:03:49;98320.09;;;-2.16;80.88
21760;BME280;11041;50.854;20.580;2022-11-20T11:06:29;98318.56;;;-2.11;80.67
21760;BME280;11041;50.854;20.580;2022-11-20T11:09:09;98309.63;;;-2.12;80.71
21760;BME280;11041;50.854;20.580;2022-11-20T11:11:38;98311.03;;;-2.09;80.77
21760;BME280;11041;50.854;20.580;2022-11-20T11:14:08;98329.47;;;-2.01;80.28
21760;BME280;11041;50.854;20.580;2022-11-20T11:16:35;98314.28;;;-2.07;80.21
21760;BME280;11041;50.854;20.580;2022-11-20T11:19:21;98318.72;;;-2.01;79.19
21760;BME280;11041;50.854;20.580;2022-11-20T11:21:57;98312.97;;;-2.05;79.23
21760;BME280;11041;50.854;20.580;2022-11-20T11:24:29;98317.56;;;-2.05;78.07
21760;BME280;11041;50.854;20.580;2022-11-20T11:27:03;98311.59;;;-2.07;78.31
21760;BME280;11041;50.854;20.580;2022-11-20T11:29:35;98302.56;;;-2.18;78.78
21760;BME280;11041;50.854;20.580;2022-11-20T11:34:43;98301.47;;;-2.17;79.59
21760;BME280;11041;50.854;20.580;2022-11-20T11:37:20;98297.25;;;-2.13;79.57
21760;BME280;11041;50.854;20.580;2022-11-20T11:39:50;98302.13;;;-2.10;79.31
21760;BME280;11041;50.854;20.580;2022-11-20T11:42:19;98288.38;;;-2.13;79.56
21760;BME280;11041;50.854;20.580;2022-11-20T11:44:48;98289.81;;;-2.06;79.27
21760;BME280;11041;50.854;20.580;2022-11-20T11:47:47;98276.59;;;-2.07;79.45
21760;BME280;11041;50.854;20.580;2022-11-20T11:50:24;98284.75;;;-2.02;79.46
21760;BME280;11041;50.854;20.580;2022-11-20T11:53:14;98284.53;;;-2.01;79.59
21760;BME280;11041;50.854;20.580;2022-11-20T11:55:47;98279.63;;;-2.04;79.20
21760;BME280;11041;50.854;20.580;2022-11-20T11:58:34;98281.81;;;-2.01;78.84
21760;BME280;11041;50.854;20.580;2022-11-20T12:06:32;98268.38;;;-2.01;77.94
21760;BME280;11041;50.854;20.580;2022-11-20T12:09:08;98269.03;;;-2.10;78.47
21760;BME280;11041;50.854;20.580;2022-11-20T12:12:01;98273.25;;;-2.15;78.41
21760;BME280;11041;50.854;20.580;2022-11-20T12:14:43;98263.72;;;-2.22;78.69
21760;BME280;11041;50.854;20.580;2022-11-20T12:17:14;98269.69;;;-2.20;78.94
21760;BME280;11041;50.854;20.580;2022-11-20T12:19:41;98256.63;;;-2.28;78.43
21760;BME280;11041;50.854;20.580;2022-11-20T12:22:48;98275.06;;;-2.20;78.97
21760;BME280;11041;50.854;20.580;2022-11-20T12:25:35;98265.38;;;-2.21;78.56
21760;BME280;11041;50.854;20.580;2022-11-20T12:30:42;98253.69;;;-2.27;79.15
21760;BME280;11041;50.854;20.580;2022-11-20T12:33:40;98238.75;;;-2.34;78.84
21760;BME280;11041;50.854;20.580;2022-11-20T12:36:44;98236.56;;;-2.38;78.30
21760;BME280;11041;50.854;20.580;2022-11-20T12:39:43;98245.03;;;-2.46;79.14
21760;BME280;11041;50.854;20.580;2022-11-20T12:45:25;98245.44;;;-2.54;80.05
21760;BME280;11041;50.854;20.580;2022-11-20T12:48:23;98233.59;;;-2.53;79.36
21760;BME280;11041;50.854;20.580;2022-11-20T13:00:24;98222.56;;;-2.85;81.78
21760;BME280;11041;50.854;20.580;2022-11-20T13:03:37;98229.41;;;-2.78;81.04
21760;BME280;11041;50.854;20.580;2022-11-20T13:06:18;98232.09;;;-2.78;81.70
21760;BME280;11041;50.854;20.580;2022-11-20T13:09:09;98230.56;;;-2.73;81.66
21760;BME280;11041;50.854;20.580;2022-11-20T13:12:11;98230.44;;;-2.67;81.58
21760;BME280;11041;50.854;20.580;2022-11-20T13:17:50;98229.22;;;-2.59;81.58
21760;BME280;11041;50.854;20.580;2022-11-20T13:20:20;98223.47;;;-2.63;80.75
21760;BME280;11041;50.854;20.580;2022-11-20T13:22:49;98237.59;;;-2.55;81.12
21760;BME280;11041;50.854;20.580;2022-11-20T13:25:30;98240.63;;;-2.52;81.69
21760;BME280;11041;50.854;20.580;2022-11-20T13:30:51;98231.09;;;-2.43;81.58
21760;BME280;11041;50.854;20.580;2022-11-20T13:33:38;98231.91;;;-2.42;81.05
21760;BME280;11041;50.854;20.580;2022-11-20T13:36:24;98240.88;;;-2.37;80.83
21760;BME280;11041;50.854;20.580;2022-11-20T13:38:55;98224.81;;;-2.48;81.03
21760;BME280;11041;50.854;20.580;2022-11-20T13:41:36;98230.75;;;-2.46;80.43
21760;BME280;11041;50.854;20.580;2022-11-20T13:44:12;98224.22;;;-2.50;81.19
21760;BME280;11041;50.854;20.580;2022-11-20T13:46:45;98223.91;;;-2.54;81.39
21760;BME280;11041;50.854;20.580;2022-11-20T13:49:39;98223.91;;;-2.54;81.80
21760;BME280;11041;50.854;20.580;2022-11-20T14:00:25;98214.13;;;-2.43;82.54
21760;BME280;11041;50.854;20.580;2022-11-20T14:06:02;98210.22;;;-2.36;82.68
21760;BME280;11041;50.854;20.580;2022-11-20T14:09:01;98196.78;;;-2.36;82.66
21760;BME280;11041;50.854;20.580;2022-11-20T14:11:31;98200.13;;;-2.28;82.60
21760;BME280;11041;50.854;20.580;2022-11-20T14:16:36;98198.25;;;-2.28;82.90
21760;BME280;11041;50.854;20.580;2022-11-20T14:19:29;98192.59;;;-2.26;82.62
21760;BME280;11041;50.854;20.580;2022-11-20T14:22:21;98190.97;;;-2.27;82.70
21760;BME280;11041;50.854;20.580;2022-11-20T14:27:41;98189.44;;;-2.40;82.89
21760;BME280;11041;50.854;20.580;2022-11-20T14:30:22;98185.91;;;-2.41;82.64
21760;BME280;11041;50.854;20.580;2022-11-20T14:32:51;98179.41;;;-2.45;83.22
21760;BME280;11041;50.854;20.580;2022-11-20T14:35:27;98182.84;;;-2.49;83.48
21760;BME280;11041;50.854;20.580;2022-11-20T14:37:56;98177.28;;;-2.60;83.50
21760;BME280;11041;50.854;20.580;2022-11-20T14:40:35;98180.22;;;-2.61;83.83
21760;BME280;11041;50.854;20.580;2022-11-20T14:43:18;98172.28;;;-2.68;83.75